Time;durP1;ratioP1;P1;durP2;ratioP2;P2;SDS_P1;SDS_P2;PMS_P1;PMS_P2;Temp;Humidity;BMP_temperature;BMP_pressure;BME280_temperature;BME280_humidity;BME280_pressure;Samples;Min_cycle;Max_cycle;Signal;HPM_P1;HPM_P2
2023/05/17 00:00:31;;;;;;;0.10;0.10;;;9.20;99.90;;;;;;5073369;28;20650;-80
2023/05/17 00:02:56;;;;;;;0.10;0.10;;;9.20;99.90;;;;;;5072807;28;20220;-81
2023/05/17 00:05:22;;;;;;;0.10;0.10;;;9.30;99.90;;;;;;5071915;28;20173;-81
2023/05/17 00:07:48;;;;;;;0.10;0.10;;;9.20;99.90;;;;;;5073326;28;20183;-81
2023/05/17 00:10:14;;;;;;;0.10;0.10;;;9.20;99.90;;;;;;5072201;28;20188;-81
2023/05/17 00:12:39;;;;;;;0.10;0.10;;;9.30;99.90;;;;;;5072969;28;20198;-81
2023/05/17 00:15:05;;;;;;;0.10;0.10;;;9.20;99.90;;;;;;5074547;28;20802;-81
2023/05/17 00:17:31;;;;;;;0.10;0.10;;;9.20;99.90;;;;;;5073107;28;20665;-81
2023/05/17 00:19:56;;;;;;;0.10;0.10;;;9.30;99.90;;;;;;5073619;28;20209;-81
2023/05/17 00:22:22;;;;;;;0.10;0.10;;;9.30;99.90;;;;;;5073799;28;20236;-81
2023/05/17 00:24:47;;;;;;;0.10;0.10;;;9.20;99.90;;;;;;5073254;28;20631;-81
2023/05/17 00:27:13;;;;;;;0.10;0.10;;;9.30;99.90;;;;;;5073921;28;20623;-80
2023/05/17 00:29:38;;;;;;;0.10;0.10;;;9.30;99.90;;;;;;5073979;28;20285;-81
2023/05/17 00:32:04;;;;;;;0.10;0.10;;;9.30;99.90;;;;;;5074134;28;20177;-81
2023/05/17 00:34:30;;;;;;;0.10;0.10;;;9.20;99.90;;;;;;5071206;28;20282;-81
2023/05/17 00:36:55;;;;;;;0.10;0.10;;;9.20;99.90;;;;;;5075691;28;20876;-81
2023/05/17 00:39:21;;;;;;;0.10;0.10;;;9.20;99.90;;;;;;5071004;28;20208;-80
2023/05/17 00:41:46;;;;;;;0.10;0.10;;;9.20;99.90;;;;;;5072191;28;20195;-81
2023/05/17 00:44:12;;;;;;;0.10;0.10;;;9.30;99.90;;;;;;5074546;28;20202;-81
2023/05/17 00:46:37;;;;;;;0.10;0.10;;;9.30;99.90;;;;;;5074554;28;20190;-81
2023/05/17 00:49:03;;;;;;;0.10;0.10;;;9.30;99.90;;;;;;5072879;28;20184;-80
2023/05/17 00:51:28;;;;;;;0.10;0.10;;;9.30;99.90;;;;;;5072577;28;20191;-82
2023/05/17 00:53:54;;;;;;;0.10;0.10;;;9.20;99.90;;;;;;5074402;28;20205;-81
2023/05/17 00:56:20;;;;;;;0.10;0.10;;;9.20;99.90;;;;;;5073589;28;20256;-81
2023/05/17 00:58:45;;;;;;;0.10;0.10;;;9.20;99.90;;;;;;5073278;28;20212;-81
2023/05/17 01:01:11;;;;;;;0.10;0.10;;;9.10;99.90;;;;;;5073203;28;20571;-81
2023/05/17 01:03:37;;;;;;;0.10;0.10;;;9.10;99.90;;;;;;5073501;28;20240;-81
2023/05/17 01:06:05;;;;;;;0.10;0.10;;;9.00;99.90;;;;;;5072605;28;20177;-81
2023/05/17 01:08:30;;;;;;;0.10;0.10;;;9.00;99.90;;;;;;5071690;28;20201;-81
2023/05/17 01:11:02;;;;;;;0.10;0.10;;;9.10;99.90;;;;;;5076310;28;20184;-81
2023/05/17 01:13:42;;;;;;;0.10;0.10;;;9.00;99.90;;;;;;5073604;28;20203;-81
2023/05/17 01:16:30;;;;;;;0.10;0.10;;;9.00;99.90;;;;;;5073504;28;20180;-81
2023/05/17 01:19:17;;;;;;;0.10;0.10;;;9.10;99.90;;;;;;5073988;28;20597;-81
2023/05/17 01:22:16;;;;;;;0.10;0.10;;;9.10;99.90;;;;;;5070216;28;20268;-81
2023/05/17 01:25:06;;;;;;;0.10;0.10;;;9.10;99.90;;;;;;5072083;28;20571;-81
2023/05/17 01:27:34;;;;;;;0.00;0.00;;;8.90;99.90;;;;;;5072195;28;20318;-80
2023/05/17 01:30:01;;;;;;;0.10;0.10;;;9.00;99.90;;;;;;5073646;28;20215;-81
2023/05/17 01:32:28;;;;;;;0.10;0.10;;;8.90;99.90;;;;;;5071066;28;20230;-80
2023/05/17 01:34:54;;;;;;;0.10;0.10;;;8.90;99.90;;;;;;5072095;28;20180;-80
2023/05/17 01:37:19;;;;;;;0.10;0.10;;;8.80;99.90;;;;;;5069402;28;20189;-81
2023/05/17 01:39:45;;;;;;;0.10;0.10;;;8.70;99.90;;;;;;5074305;28;20233;-81
2023/05/17 01:42:23;;;;;;;0.10;0.10;;;8.70;99.90;;;;;;5074087;28;20179;-81
2023/05/17 01:45:33;;;;;;;0.10;0.10;;;8.70;99.90;;;;;;5070335;28;20200;-81
2023/05/17 01:48:15;;;;;;;0.10;0.10;;;8.70;99.90;;;;;;5073641;28;20216;-81
2023/05/17 01:50:42;;;;;;;0.10;0.10;;;8.80;99.90;;;;;;5072707;28;20185;-81
2023/05/17 01:53:13;;;;;;;0.10;0.10;;;8.80;99.90;;;;;;5071721;28;20200;-80
2023/05/17 01:55:49;;;;;;;0.10;0.10;;;8.80;99.90;;;;;;5071693;28;20184;-81
2023/05/17 01:58:16;;;;;;;0.10;0.10;;;8.80;99.90;;;;;;5072939;28;20181;-81
2023/05/17 02:00:45;;;;;;;0.10;0.10;;;8.70;99.90;;;;;;5072617;28;20184;-81
2023/05/17 02:03:20;;;;;;;0.10;0.10;;;8.60;99.90;;;;;;5072176;28;20720;-81
2023/05/17 02:05:46;;;;;;;0.10;0.10;;;8.70;99.90;;;;;;5071280;28;20187;-82
2023/05/17 02:08:13;;;;;;;0.10;0.10;;;8.60;99.90;;;;;;5073180;28;20195;-81
2023/05/17 02:10:38;;;;;;;0.10;0.10;;;8.70;99.90;;;;;;5073600;28;20219;-81
2023/05/17 02:13:04;;;;;;;0.10;0.10;;;8.80;99.90;;;;;;5071576;28;20223;-81
2023/05/17 02:15:30;;;;;;;0.10;0.10;;;8.80;99.90;;;;;;5071447;28;20287;-81
2023/05/17 02:17:56;;;;;;;0.10;0.10;;;8.80;99.90;;;;;;5070675;28;20349;-81
2023/05/17 02:20:21;;;;;;;0.10;0.10;;;8.80;99.90;;;;;;5073309;28;20222;-81
2023/05/17 02:22:47;;;;;;;0.10;0.10;;;8.70;99.90;;;;;;5070259;28;20193;-81
2023/05/17 02:25:12;;;;;;;0.10;0.10;;;8.60;99.90;;;;;;5072592;28;20728;-81
2023/05/17 02:27:38;;;;;;;0.10;0.10;;;8.60;99.90;;;;;;5073417;28;20184;-81
2023/05/17 02:30:05;;;;;;;0.10;0.10;;;8.60;99.90;;;;;;5072387;28;20244;-81
2023/05/17 02:32:31;;;;;;;0.10;0.10;;;8.50;99.90;;;;;;5070376;28;20272;-81
2023/05/17 02:34:57;;;;;;;0.10;0.10;;;8.40;99.90;;;;;;5073460;28;20268;-82
2023/05/17 02:37:23;;;;;;;0.10;0.10;;;8.30;99.90;;;;;;5071153;28;20272;-82
2023/05/17 02:39:49;;;;;;;0.10;0.10;;;8.30;99.90;;;;;;5071258;28;20216;-81
2023/05/17 02:42:14;;;;;;;0.10;0.10;;;8.20;99.90;;;;;;5072226;28;20267;-82
2023/05/17 02:44:40;;;;;;;0.10;0.10;;;8.20;99.90;;;;;;5072287;28;20218;-81
2023/05/17 02:47:05;;;;;;;0.10;0.10;;;8.10;99.90;;;;;;5071910;28;20576;-81
2023/05/17 02:49:31;;;;;;;0.10;0.10;;;8.10;99.90;;;;;;5074473;28;20185;-82
2023/05/17 02:51:56;;;;;;;0.10;0.10;;;8.10;99.90;;;;;;5072369;28;20203;-81
2023/05/17 02:54:22;;;;;;;0.10;0.10;;;8.10;99.90;;;;;;5071304;28;20844;-82
2023/05/17 02:56:48;;;;;;;0.10;0.10;;;8.10;99.90;;;;;;5071965;28;20193;-81
2023/05/17 02:59:13;;;;;;;0.10;0.10;;;8.10;99.90;;;;;;5074345;28;20228;-81
2023/05/17 03:01:39;;;;;;;0.10;0.10;;;8.00;99.90;;;;;;5071233;28;20296;-81
2023/05/17 03:04:05;;;;;;;0.10;0.10;;;7.90;99.90;;;;;;5070531;28;20223;-82
2023/05/17 03:06:30;;;;;;;0.10;0.10;;;7.90;99.90;;;;;;5073750;28;20257;-81
2023/05/17 03:08:56;;;;;;;4.03;2.97;;;7.90;99.90;;;;;;5068644;28;20578;-81
2023/05/17 03:11:21;;;;;;;0.00;0.00;;;7.80;99.90;;;;;;5071110;28;20210;-81
2023/05/17 03:13:50;;;;;;;0.10;0.10;;;7.80;99.90;;;;;;5071208;28;20304;-82
2023/05/17 03:16:16;;;;;;;0.10;0.10;;;7.70;99.90;;;;;;5069826;28;20195;-82
2023/05/17 03:18:42;;;;;;;0.17;0.17;;;7.70;99.90;;;;;;5072062;28;20204;-81
2023/05/17 03:21:07;;;;;;;0.10;0.10;;;7.70;99.90;;;;;;5070964;28;20780;-81
2023/05/17 03:23:33;;;;;;;0.10;0.10;;;7.70;99.90;;;;;;5070107;28;20302;-81
2023/05/17 03:25:58;;;;;;;0.10;0.10;;;7.60;99.90;;;;;;5070329;28;20199;-81
2023/05/17 03:28:24;;;;;;;0.10;0.10;;;7.70;99.90;;;;;;5071106;28;20185;-81
2023/05/17 03:30:50;;;;;;;0.10;0.10;;;7.50;99.90;;;;;;5071339;28;20189;-81
2023/05/17 03:33:17;;;;;;;0.10;0.10;;;7.50;99.90;;;;;;5071969;28;20255;-81
2023/05/17 03:35:42;;;;;;;0.10;0.10;;;7.50;99.90;;;;;;5071613;28;20599;-81
2023/05/17 03:38:08;;;;;;;0.03;0.03;;;7.50;99.90;;;;;;5072489;28;20183;-81
2023/05/17 03:40:33;;;;;;;0.10;0.10;;;7.50;99.90;;;;;;5069476;28;20219;-81
2023/05/17 03:42:59;;;;;;;0.10;0.10;;;7.60;99.90;;;;;;5070813;28;20686;-81
2023/05/17 03:45:25;;;;;;;0.10;0.10;;;7.70;99.90;;;;;;5071358;28;20293;-81
2023/05/17 03:47:51;;;;;;;0.00;0.00;;;7.80;99.90;;;;;;5073260;28;20180;-82
2023/05/17 03:50:16;;;;;;;0.03;0.03;;;7.90;99.90;;;;;;5073367;28;20189;-81
2023/05/17 03:52:42;;;;;;;0.10;0.10;;;8.00;99.90;;;;;;5092771;28;20219;-81
2023/05/17 03:55:08;;;;;;;0.10;0.10;;;8.10;99.90;;;;;;5073704;28;20334;-81
2023/05/17 03:57:33;;;;;;;0.10;0.10;;;8.20;99.90;;;;;;5073891;28;20568;-82
2023/05/17 03:59:59;;;;;;;0.10;0.10;;;8.30;99.90;;;;;;5073946;28;20211;-81
2023/05/17 04:02:25;;;;;;;0.10;0.10;;;8.70;99.90;;;;;;5072790;28;20187;-81
2023/05/17 04:04:51;;;;;;;0.10;0.10;;;9.40;99.90;;;;;;5073008;28;20219;-81
2023/05/17 04:07:17;;;;;;;0.00;0.00;;;9.60;99.90;;;;;;5076937;28;20193;-81
2023/05/17 04:09:43;;;;;;;0.10;0.10;;;9.60;99.90;;;;;;5076590;28;20271;-81
2023/05/17 04:12:09;;;;;;;0.10;0.10;;;9.60;99.90;;;;;;5077445;28;20252;-81
2023/05/17 04:14:38;;;;;;;0.10;0.10;;;9.60;99.90;;;;;;5074843;28;20552;-81
2023/05/17 04:17:04;;;;;;;0.10;0.10;;;9.70;99.90;;;;;;5079234;28;20280;-81
2023/05/17 04:19:30;;;;;;;0.10;0.10;;;9.70;99.90;;;;;;5081098;28;20291;-81
2023/05/17 04:21:55;;;;;;;0.00;0.00;;;9.60;99.90;;;;;;5079556;28;20187;-81
2023/05/17 04:24:21;;;;;;;0.10;0.10;;;9.70;99.90;;;;;;5080595;28;20247;-81
2023/05/17 04:26:46;;;;;;;0.10;0.10;;;9.50;99.90;;;;;;5078453;28;20207;-81
2023/05/17 04:29:12;;;;;;;0.10;0.10;;;9.50;99.90;;;;;;5078753;28;20220;-81
2023/05/17 04:31:37;;;;;;;0.10;0.10;;;9.40;99.90;;;;;;5077602;28;20283;-82
2023/05/17 04:34:03;;;;;;;0.10;0.10;;;9.40;99.90;;;;;;5076980;28;20201;-82
2023/05/17 04:36:29;;;;;;;0.00;0.00;;;9.30;99.90;;;;;;5076438;28;20208;-81
2023/05/17 04:38:54;;;;;;;0.07;0.07;;;9.20;99.90;;;;;;5076102;28;21144;-82
2023/05/17 04:41:20;;;;;;;0.10;0.10;;;9.20;99.90;;;;;;5072752;28;20188;-81
2023/05/17 04:43:45;;;;;;;0.10;0.10;;;9.10;99.90;;;;;;5076277;28;20348;-82
2023/05/17 04:46:11;;;;;;;0.10;0.10;;;8.90;99.90;;;;;;5075344;28;20184;-82
2023/05/17 04:48:37;;;;;;;0.10;0.10;;;8.90;99.90;;;;;;5073443;28;20565;-82
2023/05/17 04:51:03;;;;;;;0.03;0.03;;;9.00;99.90;;;;;;5073765;28;20197;-80
2023/05/17 04:53:29;;;;;;;0.10;0.10;;;8.90;99.90;;;;;;5073866;28;20208;-81
2023/05/17 04:55:55;;;;;;;0.10;0.10;;;8.80;99.90;;;;;;5071411;28;20219;-81
2023/05/17 04:58:23;;;;;;;0.10;0.10;;;8.80;99.90;;;;;;5079629;28;20216;-81
2023/05/17 05:00:49;;;;;;;0.10;0.10;;;8.90;99.90;;;;;;5086863;28;20177;-80
2023/05/17 05:03:14;;;;;;;0.10;0.10;;;9.00;99.90;;;;;;5082245;28;20577;-80
2023/05/17 05:05:40;;;;;;;0.10;0.10;;;9.10;99.90;;;;;;5078745;28;20192;-81
2023/05/17 05:08:05;;;;;;;0.10;0.10;;;9.10;99.90;;;;;;5076904;28;21123;-81
2023/05/17 05:10:31;;;;;;;0.07;0.07;;;9.10;99.90;;;;;;5078374;28;20188;-82
2023/05/17 05:12:57;;;;;;;0.10;0.10;;;9.10;99.90;;;;;;5074318;28;20200;-83
2023/05/17 05:15:22;;;;;;;0.10;0.10;;;9.20;99.90;;;;;;5074230;28;20189;-82
2023/05/17 05:17:48;;;;;;;0.10;0.10;;;9.30;99.90;;;;;;5073605;28;20555;-82
2023/05/17 05:20:14;;;;;;;0.10;0.10;;;9.10;99.90;;;;;;5073099;28;20278;-82
2023/05/17 05:22:39;;;;;;;0.00;0.00;;;9.10;99.90;;;;;;5072671;28;20192;-80
2023/05/17 05:25:06;;;;;;;0.10;0.10;;;9.20;99.90;;;;;;5076008;28;20251;-82
2023/05/17 05:27:34;;;;;;;0.10;0.10;;;9.30;99.90;;;;;;5085382;28;20560;-81
2023/05/17 05:30:00;;;;;;;0.10;0.10;;;9.50;99.90;;;;;;5071743;28;20189;-82
2023/05/17 05:32:25;;;;;;;0.10;0.10;;;9.80;99.90;;;;;;5073176;28;20185;-81
2023/05/17 05:34:51;;;;;;;0.10;0.10;;;9.80;99.90;;;;;;5077045;28;20202;-82
2023/05/17 05:37:18;;;;;;;0.10;0.10;;;10.00;99.90;;;;;;5075714;28;20272;-81
2023/05/17 05:39:44;;;;;;;0.10;0.10;;;10.20;99.90;;;;;;5076222;28;20208;-82
2023/05/17 05:42:10;;;;;;;0.10;0.10;;;10.20;99.90;;;;;;5077327;28;20189;-81
2023/05/17 05:44:36;;;;;;;0.10;0.10;;;10.20;99.90;;;;;;5079223;28;20673;-81
2023/05/17 05:47:01;;;;;;;0.10;0.10;;;10.20;99.90;;;;;;5076288;28;20503;-81
2023/05/17 05:49:27;;;;;;;0.10;0.10;;;10.40;99.90;;;;;;5076301;28;20215;-84
2023/05/17 05:51:52;;;;;;;0.10;0.10;;;10.60;99.90;;;;;;5078419;28;20194;-81
2023/05/17 05:54:18;;;;;;;0.10;0.10;;;10.70;99.90;;;;;;5075048;28;20235;-81
2023/05/17 05:56:43;;;;;;;0.10;0.10;;;10.60;99.90;;;;;;5076730;28;20197;-81
2023/05/17 05:59:09;;;;;;;0.10;0.10;;;10.80;99.90;;;;;;5079422;28;20209;-80
2023/05/17 06:01:34;;;;;;;0.10;0.10;;;10.80;99.90;;;;;;5078476;28;20196;-81
2023/05/17 06:04:00;;;;;;;0.10;0.10;;;10.90;99.90;;;;;;5075900;28;20682;-81
2023/05/17 06:06:25;;;;;;;0.10;0.10;;;10.90;99.90;;;;;;5077279;28;20628;-82
2023/05/17 06:08:51;;;;;;;0.03;0.03;;;10.80;99.90;;;;;;5076462;28;20672;-81
2023/05/17 06:11:17;;;;;;;0.10;0.10;;;10.80;99.90;;;;;;5079693;28;20254;-81
2023/05/17 06:13:43;;;;;;;0.20;0.20;;;11.10;99.90;;;;;;5075370;28;20257;-81
2023/05/17 06:16:08;;;;;;;0.10;0.10;;;11.20;99.90;;;;;;5077007;28;20204;-81
2023/05/17 06:18:34;;;;;;;0.10;0.10;;;11.30;99.90;;;;;;5083139;28;20289;-81
2023/05/17 06:20:59;;;;;;;0.10;0.10;;;11.40;99.90;;;;;;5071774;28;20217;-81
2023/05/17 06:23:25;;;;;;;0.10;0.10;;;11.40;99.90;;;;;;5073762;28;20707;-80
2023/05/17 06:25:51;;;;;;;0.10;0.10;;;11.80;99.90;;;;;;5076314;28;20198;-81
2023/05/17 06:28:17;;;;;;;0.10;0.10;;;12.00;99.90;;;;;;5076750;28;21089;-80
2023/05/17 06:30:42;;;;;;;0.10;0.10;;;11.80;99.90;;;;;;5076917;28;20192;-82
2023/05/17 06:33:08;;;;;;;0.10;0.10;;;11.80;99.90;;;;;;5074758;28;20205;-81
2023/05/17 06:35:34;;;;;;;0.10;0.10;;;11.80;99.90;;;;;;5078253;28;20611;-81
2023/05/17 06:38:00;;;;;;;0.10;0.10;;;11.90;99.90;;;;;;5074260;28;20184;-81
2023/05/17 06:40:25;;;;;;;0.10;0.10;;;11.80;99.90;;;;;;5075783;28;20202;-82
2023/05/17 06:42:51;;;;;;;0.10;0.10;;;11.70;99.90;;;;;;5075710;28;20634;-81
2023/05/17 06:45:17;;;;;;;0.10;0.10;;;12.10;99.90;;;;;;5074376;28;20254;-81
2023/05/17 06:47:42;;;;;;;0.10;0.10;;;11.70;99.90;;;;;;5075930;28;20889;-81
2023/05/17 06:50:08;;;;;;;0.00;0.00;;;11.90;99.90;;;;;;5072134;28;20279;-81
2023/05/17 06:52:34;;;;;;;0.10;0.10;;;12.10;99.90;;;;;;5073874;28;20188;-81
2023/05/17 06:55:00;;;;;;;0.10;0.10;;;12.70;99.90;;;;;;5074889;28;20188;-80
2023/05/17 06:57:25;;;;;;;0.10;0.10;;;12.90;99.90;;;;;;5075621;28;20551;-82
2023/05/17 06:59:51;;;;;;;0.10;0.10;;;12.90;99.90;;;;;;5074473;28;20581;-83
2023/05/17 07:02:17;;;;;;;0.10;0.10;;;13.00;99.90;;;;;;5073756;28;20188;-83
2023/05/17 07:04:43;;;;;;;0.10;0.10;;;13.60;99.90;;;;;;5070700;28;20272;-82
2023/05/17 07:07:08;;;;;;;0.10;0.10;;;13.40;99.90;;;;;;5072010;28;20182;-83
2023/05/17 07:09:34;;;;;;;0.10;0.10;;;13.20;99.90;;;;;;5072779;28;20230;-82
2023/05/17 07:12:00;;;;;;;0.10;0.10;;;13.30;99.90;;;;;;5070588;28;20192;-82
2023/05/17 07:14:25;;;;;;;0.10;0.10;;;13.20;99.90;;;;;;5068244;28;20215;-82
2023/05/17 07:16:51;;;;;;;0.10;0.10;;;13.50;99.90;;;;;;5069489;28;20195;-82
2023/05/17 07:19:16;;;;;;;0.10;0.10;;;14.00;99.90;;;;;;5070355;28;20209;-82
2023/05/17 07:21:42;;;;;;;0.10;0.10;;;14.30;99.90;;;;;;5069591;28;20195;-81
2023/05/17 07:24:08;;;;;;;0.10;0.10;;;14.70;99.90;;;;;;5073370;28;20282;-82
2023/05/17 07:26:33;;;;;;;0.10;0.10;;;15.00;99.90;;;;;;5077051;28;20209;-83
2023/05/17 07:28:59;;;;;;;0.10;0.10;;;14.70;99.90;;;;;;5075837;28;20200;-82
2023/05/17 07:31:25;;;;;;;0.10;0.10;;;14.00;99.90;;;;;;5077922;28;20305;-82
2023/05/17 07:33:51;;;;;;;0.10;0.10;;;14.20;99.90;;;;;;5072842;28;20593;-83
2023/05/17 07:36:16;;;;;;;0.10;0.10;;;14.40;99.90;;;;;;5076219;28;20198;-81
2023/05/17 07:38:42;;;;;;;0.10;0.10;;;14.30;99.90;;;;;;5074449;28;20630;-81
2023/05/17 07:41:08;;;;;;;0.10;0.10;;;14.20;99.90;;;;;;5077262;28;20192;-83
2023/05/17 07:43:36;;;;;;;0.20;0.20;;;13.80;99.90;;;;;;5075362;28;20204;-81
2023/05/17 07:46:02;;;;;;;0.10;0.10;;;14.00;99.90;;;;;;5079876;28;20193;-82
2023/05/17 07:48:28;;;;;;;0.10;0.10;;;13.90;99.90;;;;;;5079982;28;20254;-81
2023/05/17 07:50:53;;;;;;;0.10;0.10;;;14.60;99.90;;;;;;5075367;28;20742;-81
2023/05/17 07:53:19;;;;;;;0.10;0.10;;;14.90;99.90;;;;;;5076863;28;20276;-82
2023/05/17 07:55:45;;;;;;;0.10;0.10;;;14.80;99.90;;;;;;5079577;28;20218;-81
2023/05/17 07:58:11;;;;;;;0.10;0.10;;;15.10;99.90;;;;;;5082289;28;20603;-81
2023/05/17 08:00:37;;;;;;;0.10;0.10;;;15.00;99.90;;;;;;5081450;28;20234;-81
2023/05/17 08:03:02;;;;;;;0.10;0.10;;;14.90;99.90;;;;;;5079379;28;20215;-82
2023/05/17 08:05:28;;;;;;;0.10;0.10;;;14.40;99.90;;;;;;5079377;28;20183;-81
2023/05/17 08:07:54;;;;;;;0.10;0.10;;;14.50;99.90;;;;;;5076906;28;20618;-82
2023/05/17 08:10:20;;;;;;;0.10;0.10;;;14.00;99.90;;;;;;5077458;28;20300;-81
2023/05/17 08:12:45;;;;;;;0.10;0.10;;;13.60;99.90;;;;;;5079933;28;20296;-81
2023/05/17 08:15:11;;;;;;;0.00;0.00;;;13.80;99.90;;;;;;5073233;28;20977;-82
2023/05/17 08:17:36;;;;;;;0.00;0.00;;;13.50;99.90;;;;;;5078044;28;20195;-82
2023/05/17 08:20:04;;;;;;;0.10;0.10;;;13.90;99.90;;;;;;5079375;28;20216;-81
2023/05/17 08:22:30;;;;;;;0.63;0.63;;;13.60;99.90;;;;;;5078110;28;20860;-82
2023/05/17 08:24:56;;;;;;;0.10;0.10;;;13.40;99.90;;;;;;5077129;28;20239;-82
2023/05/17 08:27:21;;;;;;;0.10;0.10;;;13.50;99.90;;;;;;5074287;28;20180;-82
2023/05/17 08:29:47;;;;;;;0.00;0.00;;;13.40;99.90;;;;;;5071974;28;20684;-81
2023/05/17 08:32:12;;;;;;;0.10;0.10;;;13.70;99.90;;;;;;5072967;28;20290;-81
2023/05/17 08:34:38;;;;;;;0.10;0.10;;;13.70;99.90;;;;;;5073188;28;20674;-81
2023/05/17 08:37:03;;;;;;;0.10;0.10;;;13.50;99.90;;;;;;5074798;28;20218;-82
2023/05/17 08:39:30;;;;;;;0.10;0.10;;;13.40;99.90;;;;;;5076252;28;20671;-81
2023/05/17 08:41:58;;;;;;;0.10;0.10;;;13.50;99.90;;;;;;5070952;28;20183;-82
2023/05/17 08:44:27;;;;;;;0.10;0.10;;;13.60;99.90;;;;;;5073877;28;20204;-82
2023/05/17 08:46:55;;;;;;;0.10;0.10;;;13.20;99.90;;;;;;5072043;28;20176;-82
2023/05/17 08:49:24;;;;;;;0.10;0.10;;;13.20;99.90;;;;;;5073555;28;20259;-81
2023/05/17 08:51:52;;;;;;;0.10;0.10;;;13.10;99.90;;;;;;5072984;28;20665;-82
2023/05/17 08:54:17;;;;;;;0.10;0.10;;;13.00;99.90;;;;;;5069073;28;20656;-82
2023/05/17 08:56:43;;;;;;;0.10;0.10;;;13.10;99.90;;;;;;5075615;28;20229;-82
2023/05/17 08:59:10;;;;;;;0.03;0.03;;;13.00;99.90;;;;;;5069892;28;20206;-83
2023/05/17 09:01:38;;;;;;;0.10;0.10;;;13.80;99.90;;;;;;5070537;28;20184;-83
2023/05/17 09:04:07;;;;;;;0.10;0.10;;;14.00;99.90;;;;;;5076727;28;20565;-83
2023/05/17 09:06:34;;;;;;;0.10;0.10;;;14.60;99.90;;;;;;5073349;28;20192;-82
2023/05/17 09:09:00;;;;;;;0.10;0.10;;;15.20;99.90;;;;;;5092737;28;20778;-83
2023/05/17 09:11:31;;;;;;;0.10;0.10;;;15.50;99.90;;;;;;5075293;28;20198;-82
2023/05/17 09:14:07;;;;;;;0.10;0.10;;;15.20;99.90;;;;;;5073586;28;20242;-81
2023/05/17 09:16:35;;;;;;;0.67;0.67;;;15.30;99.90;;;;;;5073992;28;20211;-82
2023/05/17 09:19:02;;;;;;;0.10;0.10;;;14.80;99.90;;;;;;5076234;28;20820;-82
2023/05/17 09:21:32;;;;;;;0.10;0.10;;;14.20;99.90;;;;;;5073554;28;20181;-82
2023/05/17 09:24:00;;;;;;;0.10;0.10;;;14.00;99.90;;;;;;5074106;28;20224;-81
2023/05/17 09:26:36;;;;;;;0.10;0.10;;;14.10;99.90;;;;;;5073236;28;20189;-82
2023/05/17 09:29:01;;;;;;;0.03;0.03;;;14.40;99.90;;;;;;5074786;28;20192;-83
2023/05/17 09:31:27;;;;;;;0.10;0.10;;;14.80;99.90;;;;;;5077351;28;20200;-83
2023/05/17 09:33:52;;;;;;;0.10;0.10;;;14.70;99.90;;;;;;5074414;28;20223;-82
2023/05/17 09:36:22;;;;;;;0.10;0.10;;;14.70;99.90;;;;;;5074430;28;20277;-84
2023/05/17 09:39:04;;;;;;;0.53;0.53;;;14.90;99.90;;;;;;5073719;28;20208;-83
2023/05/17 09:41:31;;;;;;;0.10;0.10;;;14.90;99.90;;;;;;5070322;28;20218;-84
2023/05/17 09:44:01;;;;;;;0.10;0.10;;;14.90;99.90;;;;;;5070244;28;20215;-84
2023/05/17 09:46:31;;;;;;;0.10;0.10;;;14.60;99.90;;;;;;5071000;28;20188;-81
2023/05/17 09:48:57;;;;;;;0.10;0.10;;;14.40;99.90;;;;;;5069033;28;20219;-82
2023/05/17 09:51:38;;;;;;;0.07;0.07;;;14.50;99.90;;;;;;5070967;28;20203;-81
2023/05/17 09:54:05;;;;;;;0.10;0.10;;;14.50;99.90;;;;;;5066752;28;20216;-82
2023/05/17 09:56:31;;;;;;;0.10;0.10;;;14.80;99.90;;;;;;5072082;28;20187;-82
2023/05/17 09:58:59;;;;;;;0.10;0.10;;;15.00;99.90;;;;;;5074375;28;21263;-82
2023/05/17 10:01:29;;;;;;;0.10;0.10;;;15.20;99.90;;;;;;5072839;28;20216;-82
2023/05/17 10:04:02;;;;;;;0.10;0.10;;;14.80;99.90;;;;;;5071335;28;20227;-81
2023/05/17 10:06:29;;;;;;;0.10;0.10;;;14.70;99.90;;;;;;5071546;28;20207;-82
2023/05/17 10:08:57;;;;;;;0.10;0.10;;;14.30;99.90;;;;;;5069982;28;20715;-82
2023/05/17 10:11:32;;;;;;;0.10;0.10;;;13.90;99.90;;;;;;5068481;28;20197;-82
2023/05/17 10:14:04;;;;;;;0.47;0.47;;;13.80;99.90;;;;;;5070259;28;20210;-82
2023/05/17 10:16:33;;;;;;;0.10;0.10;;;13.90;99.90;;;;;;5068381;28;21021;-82
2023/05/17 10:19:01;;;;;;;0.10;0.10;;;13.70;99.90;;;;;;5072769;28;20200;-82
2023/05/17 10:21:27;;;;;;;0.10;0.10;;;14.30;99.90;;;;;;5071517;28;20188;-82
2023/05/17 10:23:54;;;;;;;0.10;0.10;;;14.20;99.90;;;;;;5064590;28;21694;-83
2023/05/17 10:26:20;;;;;;;0.10;0.10;;;14.50;99.90;;;;;;5066360;28;20637;-82
2023/05/17 10:28:49;;;;;;;0.00;0.00;;;14.50;99.90;;;;;;5068467;28;20327;-82
2023/05/17 10:31:15;;;;;;;0.10;0.10;;;15.00;99.90;;;;;;5070156;28;20195;-82
2023/05/17 10:33:43;;;;;;;0.10;0.10;;;15.30;99.90;;;;;;5071214;28;20204;-82
2023/05/17 10:36:12;;;;;;;0.10;0.10;;;15.00;99.90;;;;;;5071516;28;20187;-83
2023/05/17 10:38:37;;;;;;;0.10;0.10;;;15.00;99.90;;;;;;5067635;28;20187;-82
2023/05/17 10:41:03;;;;;;;0.10;0.10;;;14.50;99.90;;;;;;5070770;28;20254;-83
2023/05/17 10:43:30;;;;;;;0.10;0.10;;;15.10;99.90;;;;;;5070894;28;20204;-83
2023/05/17 10:45:56;;;;;;;0.10;0.10;;;15.80;99.90;;;;;;5069420;28;20673;-82
2023/05/17 10:48:26;;;;;;;0.10;0.10;;;15.80;99.90;;;;;;5068231;28;20176;-83
2023/05/17 10:50:52;;;;;;;0.10;0.10;;;16.20;99.90;;;;;;5069191;28;20191;-81
2023/05/17 10:53:17;;;;;;;0.10;0.10;;;16.30;99.90;;;;;;5073345;28;20209;-82
2023/05/17 10:55:43;;;;;;;0.10;0.10;;;16.30;99.90;;;;;;5069308;28;20180;-82
2023/05/17 10:58:09;;;;;;;0.07;0.07;;;16.50;99.90;;;;;;5071066;28;20185;-82
2023/05/17 11:00:42;;;;;;;0.10;0.10;;;16.30;99.90;;;;;;5071977;28;20273;-82
2023/05/17 11:03:27;;;;;;;0.10;0.10;;;16.60;99.90;;;;;;5069212;28;20741;-82
2023/05/17 11:06:20;;;;;;;0.10;0.10;;;16.50;99.90;;;;;;5063673;28;20596;-86
2023/05/17 11:09:06;;;;;;;0.10;0.10;;;16.80;99.90;;;;;;5068600;28;20654;-85
2023/05/17 11:11:32;;;;;;;0.10;0.10;;;17.70;99.90;;;;;;5066846;28;20188;-86
2023/05/17 11:14:03;;;;;;;0.10;0.10;;;17.90;99.90;;;;;;5066998;28;20203;-82
2023/05/17 11:16:35;;;;;;;0.10;0.10;;;17.00;99.90;;;;;;5065796;28;20218;-82
2023/05/17 11:19:10;;;;;;;0.10;0.10;;;16.00;99.90;;;;;;5068188;28;20208;-82
2023/05/17 11:21:47;;;;;;;0.10;0.10;;;16.20;99.90;;;;;;5067684;28;20184;-82
2023/05/17 11:24:24;;;;;;;0.10;0.10;;;16.50;99.90;;;;;;5070423;28;20205;-83
2023/05/17 11:26:49;;;;;;;0.10;0.10;;;16.50;99.90;;;;;;5070872;28;20748;-82
2023/05/17 11:29:16;;;;;;;0.10;0.10;;;16.50;99.90;;;;;;5071048;28;20184;-82
2023/05/17 11:31:43;;;;;;;0.10;0.10;;;16.40;99.90;;;;;;5070964;28;20491;-81
2023/05/17 11:34:10;;;;;;;0.10;0.10;;;16.60;99.90;;;;;;5075340;28;20244;-81
2023/05/17 11:36:52;;;;;;;0.10;0.10;;;16.00;99.90;;;;;;5074286;28;20192;-81
2023/05/17 11:39:22;;;;;;;0.10;0.10;;;15.60;99.90;;;;;;5071381;28;20200;-81
2023/05/17 11:41:53;;;;;;;0.10;0.10;;;15.60;99.90;;;;;;5075207;28;20177;-82
2023/05/17 11:44:31;;;;;;;0.10;0.10;;;15.50;99.90;;;;;;5071865;28;20224;-81
2023/05/17 11:47:10;;;;;;;0.10;0.10;;;15.40;99.90;;;;;;5069377;28;20189;-81
2023/05/17 11:49:37;;;;;;;0.10;0.10;;;15.40;99.90;;;;;;5074147;28;20188;-81
2023/05/17 11:52:04;;;;;;;0.10;0.10;;;15.60;99.90;;;;;;5073865;28;20304;-81
2023/05/17 11:54:30;;;;;;;0.10;0.10;;;16.60;99.90;;;;;;5071958;28;20204;-82
2023/05/17 11:56:58;;;;;;;0.10;0.10;;;17.10;99.90;;;;;;5074336;28;20184;-81
2023/05/17 11:59:23;;;;;;;0.10;0.10;;;17.00;99.90;;;;;;5072577;28;20220;-81
2023/05/17 12:01:49;;;;;;;0.10;0.10;;;16.60;99.90;;;;;;5074204;28;20215;-81
2023/05/17 12:04:25;;;;;;;0.10;0.10;;;16.50;99.90;;;;;;5072462;28;20731;-81
2023/05/17 12:06:52;;;;;;;0.10;0.10;;;16.90;99.90;;;;;;5069307;28;20205;-81
2023/05/17 12:09:18;;;;;;;0.10;0.10;;;16.80;99.90;;;;;;5078742;28;20185;-81
2023/05/17 12:11:45;;;;;;;0.10;0.10;;;16.50;99.90;;;;;;5080526;28;20184;-81
2023/05/17 12:14:15;;;;;;;0.10;0.10;;;16.60;99.90;;;;;;5080054;28;20219;-81
2023/05/17 12:16:43;;;;;;;0.10;0.10;;;16.50;99.90;;;;;;5082021;28;20557;-81
2023/05/17 12:19:19;;;;;;;0.10;0.10;;;16.40;99.90;;;;;;5079641;28;20279;-81
2023/05/17 12:21:45;;;;;;;0.10;0.10;;;16.60;99.90;;;;;;5079077;28;20176;-81
2023/05/17 12:24:11;;;;;;;0.10;0.10;;;16.50;99.90;;;;;;5071200;28;20224;-82
2023/05/17 12:26:43;;;;;;;0.10;0.10;;;16.40;99.90;;;;;;5079563;28;20694;-81
2023/05/17 12:29:09;;;;;;;0.10;0.10;;;17.40;99.90;;;;;;5075905;28;20219;-82
2023/05/17 12:31:41;;;;;;;0.10;0.10;;;17.70;99.90;;;;;;5069042;28;20193;-84
2023/05/17 12:34:08;;;;;;;0.10;0.10;;;18.40;99.90;;;;;;5073883;28;20310;-83
2023/05/17 12:36:36;;;;;;;0.10;0.10;;;18.20;99.90;;;;;;5078441;28;20193;-83
2023/05/17 12:39:04;;;;;;;0.10;0.10;;;17.30;99.90;;;;;;5073948;28;20196;-83
2023/05/17 12:41:30;;;;;;;0.10;0.10;;;17.60;99.90;;;;;;5080605;28;20203;-83
2023/05/17 12:43:56;;;;;;;0.10;0.10;;;17.90;99.90;;;;;;5072705;28;20244;-83
2023/05/17 12:46:23;;;;;;;0.10;0.10;;;16.90;99.90;;;;;;5073092;28;20180;-83
2023/05/17 12:48:50;;;;;;;0.10;0.10;;;17.00;99.90;;;;;;5070941;28;20186;-84
2023/05/17 12:51:20;;;;;;;0.10;0.10;;;17.60;99.90;;;;;;5069561;28;20641;-83